createdAt,value
2023-04-25T00:01:37.145Z,100440.47
2023-04-25T00:04:04.055Z,100437.81
2023-04-25T00:06:30.942Z,100447.59
2023-04-25T00:08:57.547Z,100439.81
2023-04-25T00:11:24.637Z,100442.22
2023-04-25T00:13:55.195Z,100452.06
2023-04-25T00:16:21.629Z,100446.75
2023-04-25T00:18:52.150Z,100447.56
2023-04-25T00:21:20.670Z,100446.75
2023-04-25T00:23:47.863Z,100451.94
2023-04-25T00:26:14.416Z,100447.38
2023-04-25T00:28:41.630Z,100451.91
2023-04-25T00:31:08.137Z,100449.19
2023-04-25T00:33:34.624Z,100457.25
2023-04-25T00:36:01.166Z,100453.34
2023-04-25T00:38:27.651Z,100451.56
2023-04-25T00:40:54.879Z,100442.56
2023-04-25T00:43:21.719Z,100448.03
2023-04-25T00:45:49.563Z,100451.66
2023-04-25T00:48:15.960Z,100453.53
2023-04-25T00:50:43.169Z,100444.53
2023-04-25T00:53:10.884Z,100450.03
2023-04-25T00:55:37.468Z,100450.09
2023-04-25T00:58:03.889Z,100458.84
2023-04-25T01:00:31.072Z,100458.00
2023-04-25T01:02:57.726Z,100459.69
2023-04-25T01:05:24.470Z,100459.91
2023-04-25T01:07:51.272Z,100452.88
2023-04-25T01:10:17.714Z,100465.97
2023-04-25T01:12:44.150Z,100461.84
2023-04-25T01:15:11.304Z,100463.63
2023-04-25T01:17:37.886Z,100460.03
2023-04-25T01:20:06.011Z,100455.31
2023-04-25T01:22:33.245Z,100459.44
2023-04-25T01:25:01.048Z,100452.41
2023-04-25T01:27:28.595Z,100455.16
2023-04-25T01:29:56.563Z,100452.41
2023-04-25T01:32:24.770Z,100457.81
2023-04-25T01:34:51.237Z,100463.97
2023-04-25T01:37:19.577Z,100469.97
2023-04-25T01:39:46.098Z,100468.94
2023-04-25T01:42:13.897Z,100474.50
2023-04-25T01:44:40.413Z,100473.75
2023-04-25T01:47:06.858Z,100483.63
2023-04-25T01:49:33.285Z,100471.34
2023-04-25T01:51:59.811Z,100482.31
2023-04-25T01:54:26.379Z,100474.28
2023-04-25T01:56:53.330Z,100477.84
2023-04-25T01:59:22.735Z,100472.97
2023-04-25T02:02:00.588Z,100482.59
2023-04-25T02:04:31.550Z,100488.03
2023-04-25T02:06:58.454Z,100491.72
2023-04-25T02:09:32.133Z,100498.84
2023-04-25T02:11:59.578Z,100493.47
2023-04-25T02:14:35.193Z,100510.25
2023-04-25T02:17:17.717Z,100501.44
2023-04-25T02:19:45.740Z,100516.69
2023-04-25T02:22:12.905Z,100515.66
2023-04-25T02:24:39.957Z,100513.09
2023-04-25T02:27:06.915Z,100514.81
2023-04-25T02:29:34.029Z,100511.97
2023-04-25T02:32:00.462Z,100514.81
2023-04-25T02:34:26.925Z,100514.53
2023-04-25T02:36:53.399Z,100516.44
2023-04-25T02:39:19.818Z,100521.13
2023-04-25T02:41:46.316Z,100520.88
2023-04-25T02:44:12.702Z,100522.88
2023-04-25T02:46:39.961Z,100516.84
2023-04-25T02:49:07.320Z,100513.25
2023-04-25T02:51:34.670Z,100515.22
2023-04-25T02:54:01.144Z,100517.88
2023-04-25T02:56:27.749Z,100513.34
2023-04-25T02:58:54.553Z,100522.25
2023-04-25T03:01:21.233Z,100516.69
2023-04-25T03:03:47.797Z,100518.56
2023-04-25T03:06:15.665Z,100517.97
2023-04-25T03:08:42.295Z,100517.81
2023-04-25T03:11:09.827Z,100522.34
2023-04-25T03:13:36.213Z,100524.16
2023-04-25T03:16:02.660Z,100518.66
2023-04-25T03:18:29.960Z,100531.59
2023-04-25T03:20:56.352Z,100528.94
2023-04-25T03:23:22.873Z,100524.47
2023-04-25T03:25:49.937Z,100521.88
2023-04-25T03:28:16.421Z,100528.94
2023-04-25T03:30:42.892Z,100531.25
2023-04-25T03:33:10.061Z,100535.41
2023-04-25T03:35:36.543Z,100537.22
2023-04-25T03:38:03.071Z,100534.50
2023-04-25T03:40:34.324Z,100534.25
2023-04-25T03:43:30.147Z,100542.03
2023-04-25T03:46:04.486Z,100546.81
2023-04-25T03:48:30.891Z,100555.66
2023-04-25T03:50:58.825Z,100560.53
2023-04-25T03:53:26.816Z,100561.72
2023-04-25T03:56:11.518Z,100569.47
2023-04-25T03:58:39.489Z,100564.25
2023-04-25T04:01:08.613Z,100569.88
2023-04-25T04:03:38.046Z,100561.34
2023-04-25T04:06:06.538Z,100564.25
2023-04-25T04:08:36.461Z,100561.94
2023-04-25T04:11:03.160Z,100556.69
2023-04-25T04:13:30.752Z,100564.88
2023-04-25T04:15:58.329Z,100562.69
2023-04-25T04:18:24.783Z,100556.78
2023-04-25T04:20:51.574Z,100564.59
2023-04-25T04:23:18.000Z,100571.06
2023-04-25T04:25:44.607Z,100572.94
2023-04-25T04:28:22.735Z,100576.38
2023-04-25T04:30:56.796Z,100576.81
2023-04-25T04:33:24.407Z,100588.94
2023-04-25T04:35:56.527Z,100582.34
2023-04-25T04:38:23.009Z,100586.41
2023-04-25T04:40:51.304Z,100581.78
2023-04-25T04:43:48.401Z,100587.06
2023-04-25T04:46:29.585Z,100578.22
2023-04-25T04:49:13.331Z,100582.53
2023-04-25T04:51:57.367Z,100584.19
2023-04-25T04:54:37.506Z,100588.56
2023-04-25T04:57:27.624Z,100598.94
2023-04-25T05:00:06.247Z,100602.38
2023-04-25T05:02:50.105Z,100599.50
2023-04-25T05:05:35.252Z,100603.06
2023-04-25T05:08:20.104Z,100610.63
2023-04-25T05:11:04.873Z,100600.97
2023-04-25T05:13:40.182Z,100610.72
2023-04-25T05:16:20.007Z,100617.50
2023-04-25T05:18:55.985Z,100608.47
2023-04-25T05:21:44.005Z,100614.38
2023-04-25T05:24:23.993Z,100622.13
2023-04-25T05:27:08.897Z,100628.91
2023-04-25T05:30:05.821Z,100634.06
2023-04-25T05:32:55.657Z,100641.63
2023-04-25T05:35:22.415Z,100638.88
2023-04-25T05:37:50.535Z,100640.50
2023-04-25T05:40:17.170Z,100644.44
2023-04-25T05:43:04.948Z,100633.56
2023-04-25T05:45:43.447Z,100651.69
2023-04-25T05:48:30.977Z,100657.84
2023-04-25T05:51:17.282Z,100657.94
2023-04-25T05:53:43.632Z,100655.38
2023-04-25T05:56:10.281Z,100661.63
2023-04-25T05:58:36.690Z,100668.25
2023-04-25T06:01:03.784Z,100665.34
2023-04-25T06:03:31.072Z,100674.09
2023-04-25T06:05:58.537Z,100680.78
2023-04-25T06:08:29.384Z,100677.84
2023-04-25T06:10:55.788Z,100682.06
2023-04-25T06:13:23.687Z,100686.91
2023-04-25T06:15:50.183Z,100686.06
2023-04-25T06:18:17.585Z,100684.31
2023-04-25T06:20:44.011Z,100695.84
2023-04-25T06:23:10.453Z,100688.53
2023-04-25T06:25:51.537Z,100692.66
2023-04-25T06:28:17.947Z,100691.75
2023-04-25T06:30:44.651Z,100702.13
2023-04-25T06:33:14.568Z,100694.22
2023-04-25T06:35:41.937Z,100693.84
2023-04-25T06:38:11.291Z,100695.59
2023-04-25T06:40:39.110Z,100702.78
2023-04-25T06:43:06.548Z,100704.88
2023-04-25T06:45:52.193Z,100709.19
2023-04-25T06:48:20.768Z,100713.47
2023-04-25T06:50:47.382Z,100706.34
2023-04-25T06:53:14.192Z,100710.81
2023-04-25T06:55:43.169Z,100714.66
2023-04-25T06:58:17.004Z,100706.22
2023-04-25T07:01:02.292Z,100713.00
2023-04-25T07:03:28.877Z,100714.56
2023-04-25T07:05:59.887Z,100718.94
2023-04-25T07:08:26.259Z,100717.97
2023-04-25T07:10:52.631Z,100721.06
2023-04-25T07:13:19.013Z,100722.00
2023-04-25T07:15:45.573Z,100723.94
2023-04-25T07:18:13.050Z,100723.50
2023-04-25T07:20:39.483Z,100723.34
2023-04-25T07:23:06.993Z,100738.44
2023-04-25T07:25:33.786Z,100733.84
2023-04-25T07:28:01.108Z,100736.50
2023-04-25T07:30:27.606Z,100743.22
2023-04-25T07:32:54.760Z,100743.09
2023-04-25T07:35:21.378Z,100757.06
2023-04-25T07:37:48.297Z,100748.53
2023-04-25T07:40:18.259Z,100747.91
2023-04-25T07:42:48.789Z,100750.00
2023-04-25T07:45:19.200Z,100756.00
2023-04-25T07:47:45.806Z,100765.81
2023-04-25T07:50:12.712Z,100764.44
2023-04-25T07:52:39.109Z,100768.56
2023-04-25T07:55:23.744Z,100769.44
2023-04-25T07:58:01.271Z,100771.31
2023-04-25T08:00:29.952Z,100770.72
2023-04-25T08:03:15.922Z,100772.84
2023-04-25T08:05:43.156Z,100775.41
2023-04-25T08:08:09.857Z,100777.59
2023-04-25T08:10:36.442Z,100783.78
2023-04-25T08:13:03.400Z,100795.63
2023-04-25T08:15:29.950Z,100800.19
2023-04-25T08:17:56.652Z,100803.97
2023-04-25T08:20:23.321Z,100810.72
2023-04-25T08:22:51.879Z,100806.88
2023-04-25T08:25:28.897Z,100806.44
2023-04-25T08:27:55.638Z,100811.34
2023-04-25T08:30:22.900Z,100817.88
2023-04-25T08:32:50.833Z,100813.22
2023-04-25T08:35:40.179Z,100827.31
2023-04-25T08:38:07.253Z,100823.69
2023-04-25T08:40:38.382Z,100814.38
2023-04-25T08:43:12.475Z,100820.72
2023-04-25T08:45:43.104Z,100814.56
2023-04-25T08:48:16.676Z,100824.50
2023-04-25T08:50:54.246Z,100830.19
2023-04-25T08:53:29.016Z,100835.44
2023-04-25T08:55:59.309Z,100838.47
2023-04-25T08:58:26.164Z,100837.72
2023-04-25T09:00:53.812Z,100846.25
2023-04-25T09:03:22.877Z,100838.03
2023-04-25T09:05:51.928Z,100845.00
2023-04-25T09:08:18.388Z,100846.13
2023-04-25T09:10:44.905Z,100853.97
2023-04-25T09:13:13.813Z,100852.00
2023-04-25T09:16:09.508Z,100863.06
2023-04-25T09:18:49.113Z,100867.06
2023-04-25T09:21:16.847Z,100869.47
2023-04-25T09:23:48.196Z,100868.81
2023-04-25T09:26:17.841Z,100873.88
2023-04-25T09:28:46.661Z,100874.50
2023-04-25T09:31:25.678Z,100877.22
2023-04-25T09:34:02.259Z,100880.13
2023-04-25T09:36:35.524Z,100875.84
2023-04-25T09:39:16.359Z,100878.16
2023-04-25T09:41:47.901Z,100882.72
2023-04-25T09:44:14.608Z,100882.78
2023-04-25T09:46:42.940Z,100885.28
2023-04-25T09:49:17.167Z,100888.84
2023-04-25T09:52:01.168Z,100889.59
2023-04-25T09:54:33.833Z,100893.41
2023-04-25T09:57:21.634Z,100884.31
2023-04-25T09:59:50.586Z,100889.34
2023-04-25T10:02:22.207Z,100891.69
2023-04-25T10:04:55.565Z,100893.69
2023-04-25T10:07:35.461Z,100904.88
2023-04-25T10:10:04.238Z,100911.47
2023-04-25T10:12:35.039Z,100906.00
2023-04-25T10:15:03.611Z,100915.88
2023-04-25T10:17:30.422Z,100912.63
2023-04-25T10:19:57.369Z,100918.03
2023-04-25T10:22:35.140Z,100920.97
2023-04-25T10:25:04.817Z,100923.53
2023-04-25T10:27:32.003Z,100921.63
2023-04-25T10:30:07.112Z,100928.69
2023-04-25T10:32:34.191Z,100929.59
2023-04-25T10:35:24.644Z,100938.34
2023-04-25T10:38:10.516Z,100945.75
2023-04-25T10:40:37.525Z,100957.88
2023-04-25T10:43:31.745Z,100965.34
2023-04-25T10:46:01.279Z,100961.66
2023-04-25T10:48:31.575Z,100971.34
2023-04-25T10:51:24.250Z,100969.53
2023-04-25T10:53:56.517Z,100966.28
2023-04-25T10:56:28.517Z,100976.63
2023-04-25T10:59:16.147Z,100975.47
2023-04-25T11:01:52.473Z,100976.31
2023-04-25T11:04:25.179Z,100970.63
2023-04-25T11:07:07.029Z,100966.69
2023-04-25T11:09:35.930Z,100966.38
2023-04-25T11:12:02.457Z,100965.78
2023-04-25T11:14:28.949Z,100968.19
2023-04-25T11:17:00.650Z,100963.72
2023-04-25T11:19:29.002Z,100967.94
2023-04-25T11:21:59.518Z,100973.22
2023-04-25T11:24:33.951Z,100976.22
2023-04-25T11:27:00.904Z,100975.44
2023-04-25T11:29:28.222Z,100967.75
2023-04-25T11:31:59.177Z,100973.91
2023-04-25T11:34:26.915Z,100957.16
2023-04-25T11:36:54.110Z,100958.47
2023-04-25T11:39:21.188Z,100959.16
2023-04-25T11:41:48.233Z,100968.22
2023-04-25T11:44:19.154Z,100966.13
2023-04-25T11:46:46.299Z,100960.25
2023-04-25T11:49:13.258Z,100962.81
2023-04-25T11:51:48.344Z,100957.81
2023-04-25T11:54:16.262Z,100958.97
2023-04-25T11:56:46.644Z,100964.38
2023-04-25T11:59:14.304Z,100966.53
2023-04-25T12:01:50.110Z,100958.19
2023-04-25T12:04:19.285Z,100964.81
2023-04-25T12:06:48.819Z,100941.91
2023-04-25T12:09:18.775Z,100956.84
2023-04-25T12:11:46.875Z,100969.13
2023-04-25T12:14:21.458Z,100965.22
2023-04-25T12:16:49.456Z,100967.63
2023-04-25T12:19:17.780Z,100962.63
2023-04-25T12:21:57.268Z,100965.88
2023-04-25T12:24:28.272Z,100966.59
2023-04-25T12:27:05.926Z,100977.84
2023-04-25T12:29:38.570Z,100977.56
2023-04-25T12:32:14.695Z,100975.28
2023-04-25T12:34:41.113Z,100974.41
2023-04-25T12:37:07.451Z,100979.56
2023-04-25T12:39:33.829Z,100982.66
2023-04-25T12:42:00.696Z,100989.00
2023-04-25T12:44:27.170Z,100993.19
2023-04-25T12:46:53.890Z,100989.75
2023-04-25T12:49:20.492Z,100998.25
2023-04-25T12:51:47.645Z,101000.69
2023-04-25T12:54:15.250Z,101013.72
2023-04-25T12:56:42.016Z,101008.38
2023-04-25T12:59:08.616Z,100999.22
2023-04-25T13:01:36.550Z,101006.63
2023-04-25T13:04:03.629Z,101011.78
2023-04-25T13:06:33.277Z,101010.94
2023-04-25T13:08:59.706Z,101010.94
2023-04-25T13:11:26.122Z,101008.44
2023-04-25T13:13:53.020Z,101011.56
2023-04-25T13:16:21.754Z,101014.81
2023-04-25T13:18:48.377Z,101011.38
2023-04-25T13:21:14.810Z,101011.56
2023-04-25T13:23:43.599Z,101006.47
2023-04-25T13:26:10.020Z,101013.00
2023-04-25T13:28:36.415Z,101018.97
2023-04-25T13:31:02.794Z,101012.66
2023-04-25T13:33:29.783Z,101018.53
2023-04-25T13:35:57.837Z,101016.69
2023-04-25T13:38:25.353Z,101007.22
2023-04-25T13:40:53.494Z,101007.63
2023-04-25T13:43:23.085Z,101004.31
2023-04-25T13:45:50.511Z,100997.69
2023-04-25T13:48:17.345Z,100998.94
2023-04-25T13:50:43.812Z,101004.72
2023-04-25T13:53:10.331Z,101009.84
2023-04-25T13:55:37.698Z,101001.53
2023-04-25T13:58:10.904Z,101003.25
2023-04-25T14:00:44.228Z,100997.59
2023-04-25T14:03:11.068Z,100998.75
2023-04-25T14:05:40.897Z,100992.56
2023-04-25T14:08:08.867Z,100990.47
2023-04-25T14:10:36.207Z,100991.69
2023-04-25T14:13:04.167Z,100977.72
2023-04-25T14:15:33.913Z,100988.88
2023-04-25T14:18:01.610Z,100983.81
2023-04-25T14:20:28.524Z,100977.25
2023-04-25T14:22:56.873Z,100985.72
2023-04-25T14:25:24.056Z,100985.06
2023-04-25T14:27:50.982Z,100983.38
2023-04-25T14:30:21.964Z,100987.75
2023-04-25T14:32:51.275Z,100988.78
2023-04-25T14:35:17.914Z,100991.00
2023-04-25T14:37:44.385Z,100989.47
2023-04-25T14:40:11.657Z,100987.13
2023-04-25T14:42:38.542Z,100992.91
2023-04-25T14:45:07.516Z,101012.78
2023-04-25T14:47:34.320Z,101011.94
2023-04-25T14:50:00.875Z,101021.13
2023-04-25T14:52:27.267Z,101016.38
2023-04-25T14:54:53.982Z,101017.06
2023-04-25T14:57:20.527Z,101025.94
2023-04-25T14:59:47.222Z,101025.44
2023-04-25T15:02:13.846Z,101024.72
2023-04-25T15:04:40.456Z,101023.69
2023-04-25T15:07:06.986Z,101021.19
2023-04-25T15:09:33.454Z,101023.28
2023-04-25T15:11:59.880Z,101019.41
2023-04-25T15:14:26.369Z,101016.63
2023-04-25T15:16:52.842Z,101014.50
2023-04-25T15:19:19.276Z,101021.03
2023-04-25T15:21:45.661Z,101020.25
2023-04-25T15:24:12.168Z,101030.22
2023-04-25T15:26:38.548Z,101022.66
2023-04-25T15:29:06.678Z,101023.50
2023-04-25T15:31:33.387Z,101030.66
2023-04-25T15:33:59.802Z,101026.06
2023-04-25T15:36:26.544Z,101032.63
2023-04-25T15:38:53.134Z,101025.44
2023-04-25T15:41:19.534Z,101030.50
2023-04-25T15:43:48.961Z,101031.88
2023-04-25T15:46:15.709Z,101027.69
2023-04-25T15:48:42.170Z,101027.38
2023-04-25T15:51:08.531Z,101032.59
2023-04-25T15:53:34.910Z,101029.19
2023-04-25T15:56:01.821Z,101027.59
2023-04-25T15:58:28.187Z,101031.22
2023-04-25T16:00:55.576Z,101048.03
2023-04-25T16:03:22.396Z,101039.47
2023-04-25T16:05:49.028Z,101035.94
2023-04-25T16:08:15.504Z,101039.16
2023-04-25T16:10:42.053Z,101045.53
2023-04-25T16:13:08.422Z,101049.00
2023-04-25T16:15:35.768Z,101052.31
2023-04-25T16:18:02.646Z,101047.47
2023-04-25T16:20:29.074Z,101046.78
2023-04-25T16:22:55.514Z,101053.28
2023-04-25T16:25:22.194Z,101044.81
2023-04-25T16:27:48.608Z,101053.91
2023-04-25T16:30:15.236Z,101050.97
2023-04-25T16:32:43.925Z,101058.25
2023-04-25T16:35:12.217Z,101050.81
2023-04-25T16:37:38.675Z,101055.56
2023-04-25T16:40:08.907Z,101061.22
2023-04-25T16:42:36.251Z,101057.47
2023-04-25T16:45:04.941Z,101056.69
2023-04-25T16:47:31.950Z,101068.13
2023-04-25T16:50:00.406Z,101070.44
2023-04-25T16:52:26.927Z,101062.69
2023-04-25T16:54:53.315Z,101067.75
2023-04-25T16:57:20.960Z,101055.25
2023-04-25T16:59:47.417Z,101061.66
2023-04-25T17:02:15.149Z,101071.06
2023-04-25T17:04:41.958Z,101065.81
2023-04-25T17:07:08.981Z,101070.41
2023-04-25T17:09:36.054Z,101076.84
2023-04-25T17:12:03.623Z,101073.50
2023-04-25T17:14:30.029Z,101080.13
2023-04-25T17:16:56.609Z,101069.47
2023-04-25T17:19:23.104Z,101077.22
2023-04-25T17:21:49.609Z,101087.59
2023-04-25T17:24:16.214Z,101094.38
2023-04-25T17:26:42.602Z,101100.41
2023-04-25T17:29:08.963Z,101094.38
2023-04-25T17:31:36.434Z,101112.38
2023-04-25T17:34:04.036Z,101105.69
2023-04-25T17:36:30.882Z,101100.09
2023-04-25T17:38:57.513Z,101111.38
2023-04-25T17:41:23.918Z,101108.59
2023-04-25T17:43:50.394Z,101105.78
2023-04-25T17:46:16.809Z,101109.66
2023-04-25T17:48:43.244Z,101121.63
2023-04-25T17:51:09.689Z,101115.97
2023-04-25T17:53:36.508Z,101125.31
2023-04-25T17:56:05.268Z,101126.69
2023-04-25T17:58:33.261Z,101124.47
2023-04-25T18:00:59.651Z,101128.25
2023-04-25T18:03:26.269Z,101130.81
2023-04-25T18:05:52.724Z,101126.56
2023-04-25T18:08:19.138Z,101122.28
2023-04-25T18:10:45.641Z,101131.06
2023-04-25T18:13:12.091Z,101133.97
2023-04-25T18:15:38.448Z,101136.44
2023-04-25T18:18:14.553Z,101137.47
2023-04-25T18:20:42.249Z,101148.53
2023-04-25T18:23:08.861Z,101143.59
2023-04-25T18:25:35.584Z,101160.31
2023-04-25T18:28:02.146Z,101160.66
2023-04-25T18:30:28.587Z,101162.28
2023-04-25T18:32:56.127Z,101167.53
2023-04-25T18:35:22.554Z,101162.59
2023-04-25T18:37:49.530Z,101179.03
2023-04-25T18:40:16.226Z,101187.50
2023-04-25T18:42:43.132Z,101189.28
2023-04-25T18:45:10.604Z,101185.16
2023-04-25T18:47:36.986Z,101181.84
2023-04-25T18:50:04.765Z,101182.56
2023-04-25T18:52:31.146Z,101183.56
2023-04-25T18:54:57.722Z,101185.38
2023-04-25T18:57:24.439Z,101193.44
2023-04-25T18:59:50.795Z,101199.13
2023-04-25T19:02:17.630Z,101202.66
2023-04-25T19:04:44.174Z,101211.75
2023-04-25T19:07:10.570Z,101216.34
2023-04-25T19:09:36.990Z,101214.69
2023-04-25T19:12:03.780Z,101221.88
2023-04-25T19:14:32.286Z,101227.34
2023-04-25T19:17:01.653Z,101231.16
2023-04-25T19:19:28.150Z,101235.63
2023-04-25T19:21:54.549Z,101236.63
2023-04-25T19:24:21.309Z,101235.91
2023-04-25T19:26:47.732Z,101234.38
2023-04-25T19:29:15.202Z,101238.41
2023-04-25T19:31:44.062Z,101241.16
2023-04-25T19:34:11.295Z,101246.56
2023-04-25T19:36:39.268Z,101252.00
2023-04-25T19:39:07.076Z,101250.34
2023-04-25T19:41:35.904Z,101249.09
2023-04-25T19:44:04.740Z,101257.50
2023-04-25T19:46:34.257Z,101257.97
2023-04-25T19:49:01.413Z,101255.25
2023-04-25T19:51:28.938Z,101254.47
2023-04-25T19:53:55.781Z,101251.81
2023-04-25T19:56:23.154Z,101257.97
2023-04-25T19:58:50.597Z,101248.66
2023-04-25T20:01:18.179Z,101250.72
2023-04-25T20:03:45.175Z,101260.34
2023-04-25T20:06:11.604Z,101257.06
2023-04-25T20:08:38.297Z,101258.69
2023-04-25T20:11:04.821Z,101260.88
2023-04-25T20:13:31.440Z,101260.03
2023-04-25T20:16:00.010Z,101260.22
2023-04-25T20:18:29.141Z,101265.91
2023-04-25T20:20:55.501Z,101263.25
2023-04-25T20:23:22.087Z,101267.91
2023-04-25T20:25:48.557Z,101275.03
2023-04-25T20:28:14.923Z,101267.16
2023-04-25T20:30:41.696Z,101272.13
2023-04-25T20:33:09.121Z,101280.16
2023-04-25T20:35:36.712Z,101274.13
2023-04-25T20:38:03.080Z,101273.50
2023-04-25T20:40:29.478Z,101275.16
2023-04-25T20:42:56.398Z,101270.94
2023-04-25T20:45:24.256Z,101275.53
2023-04-25T20:47:50.701Z,101278.44
2023-04-25T20:50:17.174Z,101275.13
2023-04-25T20:52:44.275Z,101272.38
2023-04-25T20:55:11.663Z,101270.84
2023-04-25T20:57:38.098Z,101274.31
2023-04-25T21:00:15.005Z,101274.38
2023-04-25T21:02:41.494Z,101269.22
2023-04-25T21:05:08.302Z,101280.84
2023-04-25T21:07:34.898Z,101278.63
2023-04-25T21:10:01.303Z,101276.25
2023-04-25T21:12:27.886Z,101277.47
2023-04-25T21:14:54.244Z,101274.16
2023-04-25T21:17:20.984Z,101274.50
2023-04-25T21:19:47.411Z,101279.97
2023-04-25T21:22:13.784Z,101280.19
2023-04-25T21:24:40.243Z,101280.94
2023-04-25T21:27:06.642Z,101284.81
2023-04-25T21:29:33.017Z,101289.38
2023-04-25T21:31:59.433Z,101290.84
2023-04-25T21:34:26.374Z,101283.78
2023-04-25T21:36:52.711Z,101291.00
2023-04-25T21:39:19.768Z,101287.59
2023-04-25T21:41:46.254Z,101288.56
2023-04-25T21:44:14.316Z,101294.84
2023-04-25T21:46:40.688Z,101290.53
2023-04-25T21:49:07.084Z,101286.28
2023-04-25T21:51:33.632Z,101292.59
2023-04-25T21:54:01.069Z,101293.59
2023-04-25T21:56:27.477Z,101301.66
2023-04-25T21:58:54.034Z,101295.59
2023-04-25T22:01:20.677Z,101305.44
2023-04-25T22:03:47.116Z,101303.84
2023-04-25T22:06:13.634Z,101313.75
2023-04-25T22:08:39.958Z,101312.06
2023-04-25T22:11:07.346Z,101308.59
2023-04-25T22:13:33.801Z,101312.34
2023-04-25T22:16:00.181Z,101313.31
2023-04-25T22:18:26.546Z,101314.25
2023-04-25T22:20:53.243Z,101316.00
2023-04-25T22:23:19.693Z,101319.84
2023-04-25T22:25:46.196Z,101320.88
2023-04-25T22:28:12.580Z,101320.13
2023-04-25T22:30:39.328Z,101322.78
2023-04-25T22:33:05.845Z,101327.34
2023-04-25T22:35:32.201Z,101318.63
2023-04-25T22:37:58.793Z,101325.56
2023-04-25T22:40:25.137Z,101329.16
2023-04-25T22:42:51.658Z,101332.72
2023-04-25T22:45:18.028Z,101330.91
2023-04-25T22:47:44.435Z,101340.78
2023-04-25T22:50:16.302Z,101341.78
2023-04-25T22:52:43.011Z,101344.50
2023-04-25T22:55:10.589Z,101350.75
2023-04-25T22:57:38.226Z,101349.91
2023-04-25T23:00:15.029Z,101348.34
2023-04-25T23:02:42.905Z,101351.06
2023-04-25T23:05:09.545Z,101353.97
2023-04-25T23:07:35.889Z,101353.25
2023-04-25T23:10:02.264Z,101355.06
2023-04-25T23:12:28.595Z,101348.91
2023-04-25T23:14:54.939Z,101355.97
2023-04-25T23:17:21.353Z,101354.13
2023-04-25T23:19:48.212Z,101351.53
2023-04-25T23:22:14.662Z,101354.41
2023-04-25T23:24:41.049Z,101345.66
2023-04-25T23:27:07.505Z,101351.00
2023-04-25T23:29:34.541Z,101353.84
2023-04-25T23:32:03.593Z,101357.47
2023-04-25T23:34:31.335Z,101362.84
2023-04-25T23:37:01.067Z,101359.53
2023-04-25T23:39:27.988Z,101368.75
2023-04-25T23:41:54.327Z,101369.53
2023-04-25T23:44:20.724Z,101363.47
2023-04-25T23:46:47.085Z,101359.16
2023-04-25T23:49:13.558Z,101372.41
2023-04-25T23:51:39.903Z,101365.50
2023-04-25T23:54:06.286Z,101365.75
2023-04-25T23:56:32.610Z,101363.00
2023-04-25T23:58:58.926Z,101372.00
